sensor_id;sensor_type;location;lat;lon;timestamp;P1;durP1;ratioP1;P2;durP2;ratioP2
61640;SDS011;62201;49.966;8.342;2024-02-26T00:00:36;2.80;;;1.30;;
61640;SDS011;62201;49.966;8.342;2024-02-26T00:03:02;3.70;;;1.90;;
61640;SDS011;62201;49.966;8.342;2024-02-26T00:05:27;2.43;;;1.77;;
61640;SDS011;62201;49.966;8.342;2024-02-26T00:07:53;1.60;;;1.17;;
61640;SDS011;62201;49.966;8.342;2024-02-26T00:10:18;2.60;;;1.30;;
61640;SDS011;62201;49.966;8.342;2024-02-26T00:12:44;2.97;;;1.07;;
61640;SDS011;62201;49.966;8.342;2024-02-26T00:15:09;1.93;;;1.20;;
61640;SDS011;62201;49.966;8.342;2024-02-26T00:17:35;2.80;;;1.60;;
61640;SDS011;62201;49.966;8.342;2024-02-26T00:20:02;3.03;;;1.27;;
61640;SDS011;62201;49.966;8.342;2024-02-26T00:22:29;1.27;;;0.90;;
61640;SDS011;62201;49.966;8.342;2024-02-26T00:24:55;2.80;;;1.07;;
61640;SDS011;62201;49.966;8.342;2024-02-26T00:27:20;1.63;;;1.10;;
61640;SDS011;62201;49.966;8.342;2024-02-26T00:29:46;1.70;;;1.20;;
61640;SDS011;62201;49.966;8.342;2024-02-26T00:32:11;2.00;;;1.23;;
61640;SDS011;62201;49.966;8.342;2024-02-26T00:34:36;2.67;;;1.00;;
61640;SDS011;62201;49.966;8.342;2024-02-26T00:37:02;3.93;;;1.33;;
61640;SDS011;62201;49.966;8.342;2024-02-26T00:39:27;1.83;;;0.90;;
61640;SDS011;62201;49.966;8.342;2024-02-26T00:41:53;1.77;;;1.10;;
61640;SDS011;62201;49.966;8.342;2024-02-26T00:44:18;2.07;;;0.97;;
61640;SDS011;62201;49.966;8.342;2024-02-26T00:46:43;1.97;;;1.00;;
61640;SDS011;62201;49.966;8.342;2024-02-26T00:49:09;1.70;;;1.13;;
61640;SDS011;62201;49.966;8.342;2024-02-26T00:51:34;2.40;;;1.37;;
61640;SDS011;62201;49.966;8.342;2024-02-26T00:54:00;2.13;;;1.20;;
61640;SDS011;62201;49.966;8.342;2024-02-26T00:56:25;2.70;;;1.20;;
61640;SDS011;62201;49.966;8.342;2024-02-26T00:58:50;2.23;;;1.00;;
61640;SDS011;62201;49.966;8.342;2024-02-26T01:01:16;1.87;;;0.90;;
61640;SDS011;62201;49.966;8.342;2024-02-26T01:03:42;3.77;;;1.17;;
61640;SDS011;62201;49.966;8.342;2024-02-26T01:06:07;1.43;;;1.03;;
61640;SDS011;62201;49.966;8.342;2024-02-26T01:08:33;2.63;;;1.10;;
61640;SDS011;62201;49.966;8.342;2024-02-26T01:11:00;3.60;;;1.10;;
61640;SDS011;62201;49.966;8.342;2024-02-26T01:13:26;2.20;;;1.07;;
61640;SDS011;62201;49.966;8.342;2024-02-26T01:15:51;2.73;;;1.30;;
61640;SDS011;62201;49.966;8.342;2024-02-26T01:18:17;2.70;;;1.37;;
61640;SDS011;62201;49.966;8.342;2024-02-26T01:20:42;4.00;;;1.20;;
61640;SDS011;62201;49.966;8.342;2024-02-26T01:23:07;1.50;;;1.13;;
61640;SDS011;62201;49.966;8.342;2024-02-26T01:25:33;1.80;;;1.23;;
61640;SDS011;62201;49.966;8.342;2024-02-26T01:27:58;2.03;;;1.00;;
61640;SDS011;62201;49.966;8.342;2024-02-26T01:30:23;2.63;;;1.17;;
61640;SDS011;62201;49.966;8.342;2024-02-26T01:32:49;8.20;;;1.30;;
61640;SDS011;62201;49.966;8.342;2024-02-26T01:35:14;2.20;;;1.10;;
61640;SDS011;62201;49.966;8.342;2024-02-26T01:37:40;1.30;;;0.97;;
61640;SDS011;62201;49.966;8.342;2024-02-26T01:40:06;2.10;;;1.10;;
61640;SDS011;62201;49.966;8.342;2024-02-26T01:42:32;2.53;;;1.00;;
61640;SDS011;62201;49.966;8.342;2024-02-26T01:44:58;2.53;;;1.10;;
61640;SDS011;62201;49.966;8.342;2024-02-26T01:47:24;2.00;;;1.10;;
61640;SDS011;62201;49.966;8.342;2024-02-26T01:49:51;2.67;;;1.13;;
61640;SDS011;62201;49.966;8.342;2024-02-26T01:52:19;2.03;;;1.10;;
61640;SDS011;62201;49.966;8.342;2024-02-26T01:54:46;2.93;;;1.13;;
61640;SDS011;62201;49.966;8.342;2024-02-26T01:57:12;2.67;;;1.30;;
61640;SDS011;62201;49.966;8.342;2024-02-26T01:59:38;2.33;;;1.00;;
61640;SDS011;62201;49.966;8.342;2024-02-26T02:02:05;1.77;;;1.10;;
61640;SDS011;62201;49.966;8.342;2024-02-26T02:04:33;4.10;;;1.30;;
61640;SDS011;62201;49.966;8.342;2024-02-26T02:07:00;2.73;;;1.10;;
61640;SDS011;62201;49.966;8.342;2024-02-26T02:09:27;4.10;;;1.17;;
61640;SDS011;62201;49.966;8.342;2024-02-26T02:11:52;2.37;;;1.30;;
61640;SDS011;62201;49.966;8.342;2024-02-26T02:14:18;1.67;;;1.00;;
61640;SDS011;62201;49.966;8.342;2024-02-26T02:16:43;2.63;;;1.20;;
61640;SDS011;62201;49.966;8.342;2024-02-26T02:19:09;1.93;;;1.20;;
61640;SDS011;62201;49.966;8.342;2024-02-26T02:21:34;2.27;;;1.17;;
61640;SDS011;62201;49.966;8.342;2024-02-26T02:24:00;2.70;;;1.10;;
61640;SDS011;62201;49.966;8.342;2024-02-26T02:26:25;3.13;;;1.50;;
61640;SDS011;62201;49.966;8.342;2024-02-26T02:28:51;2.70;;;1.37;;
61640;SDS011;62201;49.966;8.342;2024-02-26T02:31:16;3.00;;;1.17;;
61640;SDS011;62201;49.966;8.342;2024-02-26T02:33:42;3.93;;;1.23;;
61640;SDS011;62201;49.966;8.342;2024-02-26T02:36:08;3.63;;;1.40;;
61640;SDS011;62201;49.966;8.342;2024-02-26T02:38:35;2.23;;;1.40;;
61640;SDS011;62201;49.966;8.342;2024-02-26T02:41:13;3.90;;;1.30;;
61640;SDS011;62201;49.966;8.342;2024-02-26T02:43:38;3.60;;;1.50;;
61640;SDS011;62201;49.966;8.342;2024-02-26T02:46:04;2.40;;;1.50;;
61640;SDS011;62201;49.966;8.342;2024-02-26T02:48:29;2.20;;;1.30;;
61640;SDS011;62201;49.966;8.342;2024-02-26T02:50:54;3.40;;;1.40;;
61640;SDS011;62201;49.966;8.342;2024-02-26T02:53:20;1.57;;;1.17;;
61640;SDS011;62201;49.966;8.342;2024-02-26T02:55:46;1.70;;;1.20;;
61640;SDS011;62201;49.966;8.342;2024-02-26T02:58:11;2.07;;;1.13;;
61640;SDS011;62201;49.966;8.342;2024-02-26T03:00:37;1.73;;;1.10;;
61640;SDS011;62201;49.966;8.342;2024-02-26T03:03:02;2.93;;;1.13;;
61640;SDS011;62201;49.966;8.342;2024-02-26T03:05:28;2.43;;;1.20;;
61640;SDS011;62201;49.966;8.342;2024-02-26T03:07:53;2.30;;;1.00;;
61640;SDS011;62201;49.966;8.342;2024-02-26T03:10:18;3.27;;;1.30;;
61640;SDS011;62201;49.966;8.342;2024-02-26T03:12:44;4.90;;;2.30;;
61640;SDS011;62201;49.966;8.342;2024-02-26T03:15:10;1.87;;;1.50;;
61640;SDS011;62201;49.966;8.342;2024-02-26T03:17:36;3.63;;;1.33;;
61640;SDS011;62201;49.966;8.342;2024-02-26T03:20:02;2.60;;;1.70;;
61640;SDS011;62201;49.966;8.342;2024-02-26T03:22:30;2.60;;;1.40;;
61640;SDS011;62201;49.966;8.342;2024-02-26T03:24:55;2.13;;;1.30;;
61640;SDS011;62201;49.966;8.342;2024-02-26T03:27:21;2.77;;;1.10;;
61640;SDS011;62201;49.966;8.342;2024-02-26T03:29:46;10.90;;;1.60;;
61640;SDS011;62201;49.966;8.342;2024-02-26T03:32:12;3.07;;;1.30;;
61640;SDS011;62201;49.966;8.342;2024-02-26T03:34:38;2.23;;;1.23;;
61640;SDS011;62201;49.966;8.342;2024-02-26T03:37:05;2.77;;;1.40;;
61640;SDS011;62201;49.966;8.342;2024-02-26T03:39:35;5.03;;;1.30;;
61640;SDS011;62201;49.966;8.342;2024-02-26T03:42:01;1.13;;;1.00;;
61640;SDS011;62201;49.966;8.342;2024-02-26T03:44:27;6.90;;;2.10;;
61640;SDS011;62201;49.966;8.342;2024-02-26T03:46:52;2.77;;;1.50;;
61640;SDS011;62201;49.966;8.342;2024-02-26T03:49:18;3.07;;;1.53;;
61640;SDS011;62201;49.966;8.342;2024-02-26T03:51:43;3.70;;;1.53;;
61640;SDS011;62201;49.966;8.342;2024-02-26T03:54:08;2.47;;;1.10;;
61640;SDS011;62201;49.966;8.342;2024-02-26T03:56:34;2.67;;;1.50;;
61640;SDS011;62201;49.966;8.342;2024-02-26T03:58:59;3.77;;;1.87;;
61640;SDS011;62201;49.966;8.342;2024-02-26T04:01:26;3.27;;;1.60;;
61640;SDS011;62201;49.966;8.342;2024-02-26T04:03:52;3.23;;;1.67;;
61640;SDS011;62201;49.966;8.342;2024-02-26T04:06:17;2.50;;;1.50;;
61640;SDS011;62201;49.966;8.342;2024-02-26T04:08:45;6.03;;;1.87;;
61640;SDS011;62201;49.966;8.342;2024-02-26T04:11:11;4.43;;;1.63;;
61640;SDS011;62201;49.966;8.342;2024-02-26T04:13:37;2.70;;;1.60;;
61640;SDS011;62201;49.966;8.342;2024-02-26T04:16:03;5.50;;;2.00;;
61640;SDS011;62201;49.966;8.342;2024-02-26T04:18:30;3.10;;;1.77;;
61640;SDS011;62201;49.966;8.342;2024-02-26T04:20:56;4.53;;;1.60;;
61640;SDS011;62201;49.966;8.342;2024-02-26T04:23:22;3.93;;;1.73;;
61640;SDS011;62201;49.966;8.342;2024-02-26T04:25:47;3.43;;;1.63;;
61640;SDS011;62201;49.966;8.342;2024-02-26T04:28:13;5.73;;;2.33;;
61640;SDS011;62201;49.966;8.342;2024-02-26T04:30:38;6.23;;;1.77;;
61640;SDS011;62201;49.966;8.342;2024-02-26T04:33:06;4.00;;;1.80;;
61640;SDS011;62201;49.966;8.342;2024-02-26T04:35:32;3.70;;;1.70;;
61640;SDS011;62201;49.966;8.342;2024-02-26T04:37:57;5.83;;;1.77;;
61640;SDS011;62201;49.966;8.342;2024-02-26T04:40:23;2.77;;;2.10;;
61640;SDS011;62201;49.966;8.342;2024-02-26T04:42:49;4.33;;;1.70;;
61640;SDS011;62201;49.966;8.342;2024-02-26T04:45:14;3.53;;;1.87;;
61640;SDS011;62201;49.966;8.342;2024-02-26T04:47:39;3.93;;;1.90;;
61640;SDS011;62201;49.966;8.342;2024-02-26T04:50:05;4.97;;;1.97;;
61640;SDS011;62201;49.966;8.342;2024-02-26T04:52:31;3.83;;;2.10;;
61640;SDS011;62201;49.966;8.342;2024-02-26T04:54:56;4.27;;;2.10;;
61640;SDS011;62201;49.966;8.342;2024-02-26T04:57:21;3.83;;;2.40;;
61640;SDS011;62201;49.966;8.342;2024-02-26T04:59:47;4.60;;;2.23;;
61640;SDS011;62201;49.966;8.342;2024-02-26T05:02:12;4.83;;;2.20;;
61640;SDS011;62201;49.966;8.342;2024-02-26T05:04:38;4.33;;;1.97;;
61640;SDS011;62201;49.966;8.342;2024-02-26T05:07:04;3.47;;;2.37;;
61640;SDS011;62201;49.966;8.342;2024-02-26T05:09:29;4.07;;;2.53;;
61640;SDS011;62201;49.966;8.342;2024-02-26T05:11:55;3.13;;;2.40;;
61640;SDS011;62201;49.966;8.342;2024-02-26T05:14:20;3.07;;;2.10;;
61640;SDS011;62201;49.966;8.342;2024-02-26T05:16:46;6.27;;;2.17;;
61640;SDS011;62201;49.966;8.342;2024-02-26T05:19:12;5.33;;;2.43;;
61640;SDS011;62201;49.966;8.342;2024-02-26T05:21:37;5.37;;;2.47;;
61640;SDS011;62201;49.966;8.342;2024-02-26T05:24:03;5.40;;;2.40;;
61640;SDS011;62201;49.966;8.342;2024-02-26T05:26:28;3.47;;;2.17;;
61640;SDS011;62201;49.966;8.342;2024-02-26T05:28:53;4.63;;;2.53;;
61640;SDS011;62201;49.966;8.342;2024-02-26T05:31:24;4.73;;;2.20;;
61640;SDS011;62201;49.966;8.342;2024-02-26T05:33:50;4.40;;;2.70;;
61640;SDS011;62201;49.966;8.342;2024-02-26T05:36:18;4.97;;;2.57;;
61640;SDS011;62201;49.966;8.342;2024-02-26T05:38:47;8.43;;;2.83;;
61640;SDS011;62201;49.966;8.342;2024-02-26T05:41:16;8.07;;;2.53;;
61640;SDS011;62201;49.966;8.342;2024-02-26T05:43:48;5.57;;;2.70;;
61640;SDS011;62201;49.966;8.342;2024-02-26T05:46:16;6.73;;;3.10;;
61640;SDS011;62201;49.966;8.342;2024-02-26T05:48:43;6.43;;;2.63;;
61640;SDS011;62201;49.966;8.342;2024-02-26T05:51:09;5.17;;;2.90;;
61640;SDS011;62201;49.966;8.342;2024-02-26T05:53:34;5.80;;;2.70;;
61640;SDS011;62201;49.966;8.342;2024-02-26T05:56:00;6.13;;;2.40;;
61640;SDS011;62201;49.966;8.342;2024-02-26T05:58:25;8.57;;;3.23;;
61640;SDS011;62201;49.966;8.342;2024-02-26T06:00:50;5.97;;;3.10;;
61640;SDS011;62201;49.966;8.342;2024-02-26T06:03:16;5.10;;;2.87;;
61640;SDS011;62201;49.966;8.342;2024-02-26T06:05:42;4.87;;;2.90;;
61640;SDS011;62201;49.966;8.342;2024-02-26T06:08:08;5.97;;;3.10;;
61640;SDS011;62201;49.966;8.342;2024-02-26T06:10:33;6.63;;;2.97;;
61640;SDS011;62201;49.966;8.342;2024-02-26T06:12:59;5.73;;;2.90;;
61640;SDS011;62201;49.966;8.342;2024-02-26T06:15:24;8.73;;;3.13;;
61640;SDS011;62201;49.966;8.342;2024-02-26T06:17:49;10.87;;;3.60;;
61640;SDS011;62201;49.966;8.342;2024-02-26T06:20:15;7.47;;;3.30;;
61640;SDS011;62201;49.966;8.342;2024-02-26T06:22:40;5.93;;;3.07;;
61640;SDS011;62201;49.966;8.342;2024-02-26T06:25:06;7.47;;;3.47;;
61640;SDS011;62201;49.966;8.342;2024-02-26T06:27:32;6.77;;;3.27;;
61640;SDS011;62201;49.966;8.342;2024-02-26T06:29:57;6.10;;;3.27;;
61640;SDS011;62201;49.966;8.342;2024-02-26T06:32:23;6.93;;;3.97;;
61640;SDS011;62201;49.966;8.342;2024-02-26T06:34:48;8.20;;;3.70;;
61640;SDS011;62201;49.966;8.342;2024-02-26T06:37:14;6.20;;;3.50;;
61640;SDS011;62201;49.966;8.342;2024-02-26T06:39:39;7.97;;;4.13;;
61640;SDS011;62201;49.966;8.342;2024-02-26T06:42:06;8.43;;;4.00;;
61640;SDS011;62201;49.966;8.342;2024-02-26T06:44:31;4.40;;;3.30;;
61640;SDS011;62201;49.966;8.342;2024-02-26T06:47:00;5.70;;;3.80;;
61640;SDS011;62201;49.966;8.342;2024-02-26T06:49:26;8.53;;;4.10;;
61640;SDS011;62201;49.966;8.342;2024-02-26T06:51:52;8.77;;;4.47;;
61640;SDS011;62201;49.966;8.342;2024-02-26T06:54:17;6.33;;;4.30;;
61640;SDS011;62201;49.966;8.342;2024-02-26T06:56:43;10.40;;;6.67;;
61640;SDS011;62201;49.966;8.342;2024-02-26T06:59:08;9.10;;;5.43;;
61640;SDS011;62201;49.966;8.342;2024-02-26T07:01:33;8.07;;;4.77;;
61640;SDS011;62201;49.966;8.342;2024-02-26T07:03:59;9.03;;;5.23;;
61640;SDS011;62201;49.966;8.342;2024-02-26T07:06:25;10.37;;;5.67;;
61640;SDS011;62201;49.966;8.342;2024-02-26T07:08:52;9.47;;;5.77;;
61640;SDS011;62201;49.966;8.342;2024-02-26T07:11:17;8.27;;;4.63;;
61640;SDS011;62201;49.966;8.342;2024-02-26T07:13:44;7.80;;;4.63;;
61640;SDS011;62201;49.966;8.342;2024-02-26T07:16:14;11.50;;;5.80;;
61640;SDS011;62201;49.966;8.342;2024-02-26T07:18:40;9.23;;;5.67;;
61640;SDS011;62201;49.966;8.342;2024-02-26T07:21:05;11.20;;;4.73;;
61640;SDS011;62201;49.966;8.342;2024-02-26T07:23:31;11.23;;;5.50;;
61640;SDS011;62201;49.966;8.342;2024-02-26T07:25:59;8.00;;;4.93;;
61640;SDS011;62201;49.966;8.342;2024-02-26T07:28:25;8.80;;;5.27;;
61640;SDS011;62201;49.966;8.342;2024-02-26T07:30:50;9.57;;;5.50;;
61640;SDS011;62201;49.966;8.342;2024-02-26T07:33:15;9.43;;;4.53;;
61640;SDS011;62201;49.966;8.342;2024-02-26T07:35:41;9.17;;;5.40;;
61640;SDS011;62201;49.966;8.342;2024-02-26T07:38:06;9.07;;;6.10;;
61640;SDS011;62201;49.966;8.342;2024-02-26T07:40:32;8.10;;;5.20;;
61640;SDS011;62201;49.966;8.342;2024-02-26T07:42:57;10.80;;;5.77;;
61640;SDS011;62201;49.966;8.342;2024-02-26T07:45:23;9.50;;;5.87;;
61640;SDS011;62201;49.966;8.342;2024-02-26T07:47:48;11.93;;;5.93;;
61640;SDS011;62201;49.966;8.342;2024-02-26T07:50:13;10.47;;;5.50;;
61640;SDS011;62201;49.966;8.342;2024-02-26T07:52:39;11.17;;;5.47;;
61640;SDS011;62201;49.966;8.342;2024-02-26T07:55:05;9.20;;;6.10;;
61640;SDS011;62201;49.966;8.342;2024-02-26T07:57:34;9.90;;;5.30;;
61640;SDS011;62201;49.966;8.342;2024-02-26T08:00:00;10.20;;;6.20;;
61640;SDS011;62201;49.966;8.342;2024-02-26T08:02:26;8.97;;;5.40;;
61640;SDS011;62201;49.966;8.342;2024-02-26T08:04:52;10.70;;;5.70;;
61640;SDS011;62201;49.966;8.342;2024-02-26T08:07:17;7.30;;;5.30;;
61640;SDS011;62201;49.966;8.342;2024-02-26T08:09:43;9.53;;;6.53;;
61640;SDS011;62201;49.966;8.342;2024-02-26T08:12:08;13.03;;;7.00;;
61640;SDS011;62201;49.966;8.342;2024-02-26T08:14:34;11.63;;;6.40;;
61640;SDS011;62201;49.966;8.342;2024-02-26T08:16:59;10.07;;;6.17;;
61640;SDS011;62201;49.966;8.342;2024-02-26T08:19:26;10.77;;;6.03;;
61640;SDS011;62201;49.966;8.342;2024-02-26T08:21:52;13.33;;;6.43;;
61640;SDS011;62201;49.966;8.342;2024-02-26T08:24:17;11.37;;;6.13;;
61640;SDS011;62201;49.966;8.342;2024-02-26T08:26:43;12.27;;;5.77;;
61640;SDS011;62201;49.966;8.342;2024-02-26T08:29:08;10.43;;;6.00;;
61640;SDS011;62201;49.966;8.342;2024-02-26T08:31:33;7.63;;;5.47;;
61640;SDS011;62201;49.966;8.342;2024-02-26T08:34:02;8.10;;;5.50;;
61640;SDS011;62201;49.966;8.342;2024-02-26T08:36:28;9.87;;;5.27;;
61640;SDS011;62201;49.966;8.342;2024-02-26T08:38:53;8.30;;;4.67;;
61640;SDS011;62201;49.966;8.342;2024-02-26T08:41:19;11.63;;;5.80;;
61640;SDS011;62201;49.966;8.342;2024-02-26T08:43:44;9.17;;;5.83;;
61640;SDS011;62201;49.966;8.342;2024-02-26T08:46:09;7.93;;;5.77;;
61640;SDS011;62201;49.966;8.342;2024-02-26T08:48:38;11.10;;;6.50;;
61640;SDS011;62201;49.966;8.342;2024-02-26T08:51:05;9.50;;;5.63;;
61640;SDS011;62201;49.966;8.342;2024-02-26T08:53:31;10.50;;;5.83;;
61640;SDS011;62201;49.966;8.342;2024-02-26T08:55:57;10.07;;;5.67;;
61640;SDS011;62201;49.966;8.342;2024-02-26T08:58:22;10.20;;;6.03;;
61640;SDS011;62201;49.966;8.342;2024-02-26T09:00:48;10.20;;;5.63;;
61640;SDS011;62201;49.966;8.342;2024-02-26T09:03:13;8.40;;;5.47;;
61640;SDS011;62201;49.966;8.342;2024-02-26T09:05:38;7.23;;;4.67;;
61640;SDS011;62201;49.966;8.342;2024-02-26T09:08:04;9.73;;;6.00;;
61640;SDS011;62201;49.966;8.342;2024-02-26T09:10:30;10.50;;;5.60;;
61640;SDS011;62201;49.966;8.342;2024-02-26T09:12:55;10.63;;;7.20;;
61640;SDS011;62201;49.966;8.342;2024-02-26T09:15:21;11.03;;;6.23;;
61640;SDS011;62201;49.966;8.342;2024-02-26T09:17:46;10.50;;;5.70;;
61640;SDS011;62201;49.966;8.342;2024-02-26T09:20:15;14.00;;;6.23;;
61640;SDS011;62201;49.966;8.342;2024-02-26T09:22:44;9.87;;;5.37;;
61640;SDS011;62201;49.966;8.342;2024-02-26T09:25:10;9.93;;;5.97;;
61640;SDS011;62201;49.966;8.342;2024-02-26T09:27:35;8.20;;;5.90;;
61640;SDS011;62201;49.966;8.342;2024-02-26T09:30:01;9.47;;;5.50;;
61640;SDS011;62201;49.966;8.342;2024-02-26T09:32:26;8.17;;;5.27;;
61640;SDS011;62201;49.966;8.342;2024-02-26T09:34:52;9.13;;;5.73;;
61640;SDS011;62201;49.966;8.342;2024-02-26T09:37:17;8.63;;;5.83;;
61640;SDS011;62201;49.966;8.342;2024-02-26T09:39:43;8.40;;;5.47;;
61640;SDS011;62201;49.966;8.342;2024-02-26T09:42:08;10.50;;;5.60;;
61640;SDS011;62201;49.966;8.342;2024-02-26T09:44:36;10.17;;;5.33;;
61640;SDS011;62201;49.966;8.342;2024-02-26T09:47:07;8.63;;;5.10;;
61640;SDS011;62201;49.966;8.342;2024-02-26T09:49:35;8.83;;;5.60;;
61640;SDS011;62201;49.966;8.342;2024-02-26T09:52:01;9.50;;;5.53;;
61640;SDS011;62201;49.966;8.342;2024-02-26T09:54:29;6.97;;;4.40;;
61640;SDS011;62201;49.966;8.342;2024-02-26T09:56:57;8.33;;;5.60;;
61640;SDS011;62201;49.966;8.342;2024-02-26T09:59:25;8.67;;;5.20;;
61640;SDS011;62201;49.966;8.342;2024-02-26T10:01:53;8.73;;;5.40;;
61640;SDS011;62201;49.966;8.342;2024-02-26T10:04:19;12.80;;;5.03;;
61640;SDS011;62201;49.966;8.342;2024-02-26T10:06:46;7.93;;;5.63;;
61640;SDS011;62201;49.966;8.342;2024-02-26T10:09:12;6.90;;;4.93;;
61640;SDS011;62201;49.966;8.342;2024-02-26T10:11:40;9.70;;;5.07;;
61640;SDS011;62201;49.966;8.342;2024-02-26T10:14:08;8.87;;;3.90;;
61640;SDS011;62201;49.966;8.342;2024-02-26T10:16:33;9.80;;;4.63;;
61640;SDS011;62201;49.966;8.342;2024-02-26T10:18:59;5.73;;;3.87;;
61640;SDS011;62201;49.966;8.342;2024-02-26T10:21:25;9.93;;;5.03;;
61640;SDS011;62201;49.966;8.342;2024-02-26T10:23:50;7.60;;;4.67;;
61640;SDS011;62201;49.966;8.342;2024-02-26T10:26:15;6.97;;;4.82;;
61640;SDS011;62201;49.966;8.342;2024-02-26T10:28:41;8.47;;;5.20;;
61640;SDS011;62201;49.966;8.342;2024-02-26T10:31:08;12.70;;;5.30;;
61640;SDS011;62201;49.966;8.342;2024-02-26T10:33:35;9.93;;;5.17;;
61640;SDS011;62201;49.966;8.342;2024-02-26T10:36:01;9.60;;;5.20;;
61640;SDS011;62201;49.966;8.342;2024-02-26T10:38:32;9.13;;;5.40;;
61640;SDS011;62201;49.966;8.342;2024-02-26T10:40:57;9.23;;;5.67;;
61640;SDS011;62201;49.966;8.342;2024-02-26T10:43:24;7.85;;;4.88;;
61640;SDS011;62201;49.966;8.342;2024-02-26T10:45:50;10.70;;;4.80;;
61640;SDS011;62201;49.966;8.342;2024-02-26T10:48:16;8.27;;;5.15;;
61640;SDS011;62201;49.966;8.342;2024-02-26T10:50:43;7.03;;;4.47;;
61640;SDS011;62201;49.966;8.342;2024-02-26T10:53:20;7.00;;;4.97;;
61640;SDS011;62201;49.966;8.342;2024-02-26T10:55:52;12.30;;;6.22;;
61640;SDS011;62201;49.966;8.342;2024-02-26T10:58:21;9.38;;;5.32;;
61640;SDS011;62201;49.966;8.342;2024-02-26T11:00:48;6.35;;;4.15;;
61640;SDS011;62201;49.966;8.342;2024-02-26T11:03:15;9.10;;;4.95;;
61640;SDS011;62201;49.966;8.342;2024-02-26T11:05:42;8.38;;;4.60;;
61640;SDS011;62201;49.966;8.342;2024-02-26T11:08:10;8.60;;;4.75;;
61640;SDS011;62201;49.966;8.342;2024-02-26T11:10:36;6.88;;;4.70;;
61640;SDS011;62201;49.966;8.342;2024-02-26T11:13:03;8.38;;;4.32;;
61640;SDS011;62201;49.966;8.342;2024-02-26T11:15:31;7.85;;;5.07;;
61640;SDS011;62201;49.966;8.342;2024-02-26T11:17:58;9.32;;;4.95;;
61640;SDS011;62201;49.966;8.342;2024-02-26T11:20:27;8.20;;;5.18;;
61640;SDS011;62201;49.966;8.342;2024-02-26T11:22:53;7.30;;;4.85;;
61640;SDS011;62201;49.966;8.342;2024-02-26T11:25:19;7.95;;;4.78;;
61640;SDS011;62201;49.966;8.342;2024-02-26T11:27:45;6.75;;;4.80;;
61640;SDS011;62201;49.966;8.342;2024-02-26T11:30:15;7.57;;;4.60;;
61640;SDS011;62201;49.966;8.342;2024-02-26T11:32:44;6.63;;;4.22;;
61640;SDS011;62201;49.966;8.342;2024-02-26T11:35:11;7.45;;;4.40;;
61640;SDS011;62201;49.966;8.342;2024-02-26T11:37:40;7.65;;;4.97;;
61640;SDS011;62201;49.966;8.342;2024-02-26T11:40:09;8.23;;;4.65;;
61640;SDS011;62201;49.966;8.342;2024-02-26T11:42:36;8.02;;;4.72;;
61640;SDS011;62201;49.966;8.342;2024-02-26T11:48:02;10.45;;;5.18;;
61640;SDS011;62201;49.966;8.342;2024-02-26T11:50:35;6.60;;;4.43;;
61640;SDS011;62201;49.966;8.342;2024-02-26T11:53:20;6.68;;;4.65;;
61640;SDS011;62201;49.966;8.342;2024-02-26T11:55:46;6.10;;;4.63;;
61640;SDS011;62201;49.966;8.342;2024-02-26T11:58:11;6.68;;;4.10;;
61640;SDS011;62201;49.966;8.342;2024-02-26T12:00:41;5.88;;;4.18;;
61640;SDS011;62201;49.966;8.342;2024-02-26T12:03:07;5.60;;;4.00;;
61640;SDS011;62201;49.966;8.342;2024-02-26T12:05:35;6.88;;;4.50;;
61640;SDS011;62201;49.966;8.342;2024-02-26T12:08:03;7.25;;;4.93;;
61640;SDS011;62201;49.966;8.342;2024-02-26T12:10:32;6.88;;;4.60;;
61640;SDS011;62201;49.966;8.342;2024-02-26T12:13:11;8.80;;;5.03;;
61640;SDS011;62201;49.966;8.342;2024-02-26T12:15:39;7.28;;;4.32;;
61640;SDS011;62201;49.966;8.342;2024-02-26T12:18:09;5.97;;;4.20;;
61640;SDS011;62201;49.966;8.342;2024-02-26T12:20:36;7.43;;;4.60;;
61640;SDS011;62201;49.966;8.342;2024-02-26T12:23:02;6.78;;;4.47;;
61640;SDS011;62201;49.966;8.342;2024-02-26T12:25:29;7.93;;;5.18;;
61640;SDS011;62201;49.966;8.342;2024-02-26T12:27:56;8.02;;;4.57;;
61640;SDS011;62201;49.966;8.342;2024-02-26T12:30:22;7.25;;;4.85;;
61640;SDS011;62201;49.966;8.342;2024-02-26T12:32:48;5.95;;;4.38;;
61640;SDS011;62201;49.966;8.342;2024-02-26T12:35:15;8.00;;;4.25;;
61640;SDS011;62201;49.966;8.342;2024-02-26T12:37:42;7.85;;;4.78;;
61640;SDS011;62201;49.966;8.342;2024-02-26T12:40:11;9.13;;;4.82;;
61640;SDS011;62201;49.966;8.342;2024-02-26T12:42:38;6.60;;;4.13;;
61640;SDS011;62201;49.966;8.342;2024-02-26T12:45:05;4.72;;;3.90;;
61640;SDS011;62201;49.966;8.342;2024-02-26T12:47:36;6.72;;;4.20;;
61640;SDS011;62201;49.966;8.342;2024-02-26T12:50:03;5.75;;;4.22;;
61640;SDS011;62201;49.966;8.342;2024-02-26T12:52:29;5.95;;;3.90;;
61640;SDS011;62201;49.966;8.342;2024-02-26T12:54:58;7.70;;;4.03;;
61640;SDS011;62201;49.966;8.342;2024-02-26T12:57:24;7.55;;;4.05;;
61640;SDS011;62201;49.966;8.342;2024-02-26T12:59:50;5.60;;;3.65;;
61640;SDS011;62201;49.966;8.342;2024-02-26T13:02:16;8.52;;;4.10;;
61640;SDS011;62201;49.966;8.342;2024-02-26T13:04:41;7.32;;;3.70;;
61640;SDS011;62201;49.966;8.342;2024-02-26T13:07:07;5.80;;;3.63;;
61640;SDS011;62201;49.966;8.342;2024-02-26T13:09:33;6.68;;;4.43;;
61640;SDS011;62201;49.966;8.342;2024-02-26T13:12:06;6.57;;;3.97;;
61640;SDS011;62201;49.966;8.342;2024-02-26T13:14:32;4.72;;;3.60;;
61640;SDS011;62201;49.966;8.342;2024-02-26T13:16:59;7.80;;;3.80;;
61640;SDS011;62201;49.966;8.342;2024-02-26T13:19:25;6.03;;;3.92;;
61640;SDS011;62201;49.966;8.342;2024-02-26T13:21:51;4.93;;;3.92;;
61640;SDS011;62201;49.966;8.342;2024-02-26T13:24:16;6.18;;;4.22;;
61640;SDS011;62201;49.966;8.342;2024-02-26T13:26:44;7.70;;;4.18;;
61640;SDS011;62201;49.966;8.342;2024-02-26T13:29:16;5.88;;;3.83;;
61640;SDS011;62201;49.966;8.342;2024-02-26T13:31:42;6.93;;;4.00;;
61640;SDS011;62201;49.966;8.342;2024-02-26T13:34:08;6.15;;;3.90;;
61640;SDS011;62201;49.966;8.342;2024-02-26T13:36:33;6.18;;;3.85;;
61640;SDS011;62201;49.966;8.342;2024-02-26T13:38:58;6.65;;;3.80;;
61640;SDS011;62201;49.966;8.342;2024-02-26T13:41:25;7.28;;;3.58;;
61640;SDS011;62201;49.966;8.342;2024-02-26T13:43:51;7.03;;;3.70;;
61640;SDS011;62201;49.966;8.342;2024-02-26T13:46:16;5.68;;;3.70;;
61640;SDS011;62201;49.966;8.342;2024-02-26T13:48:42;4.78;;;3.70;;
61640;SDS011;62201;49.966;8.342;2024-02-26T13:51:08;7.15;;;3.80;;
61640;SDS011;62201;49.966;8.342;2024-02-26T13:53:34;7.03;;;3.70;;
61640;SDS011;62201;49.966;8.342;2024-02-26T13:55:59;7.00;;;3.97;;
61640;SDS011;62201;49.966;8.342;2024-02-26T13:58:26;6.05;;;4.05;;
61640;SDS011;62201;49.966;8.342;2024-02-26T14:00:52;6.78;;;3.60;;
61640;SDS011;62201;49.966;8.342;2024-02-26T14:03:18;6.30;;;3.65;;
61640;SDS011;62201;49.966;8.342;2024-02-26T14:05:44;6.32;;;3.70;;
61640;SDS011;62201;49.966;8.342;2024-02-26T14:08:10;5.68;;;3.60;;
61640;SDS011;62201;49.966;8.342;2024-02-26T14:10:35;5.60;;;3.65;;
61640;SDS011;62201;49.966;8.342;2024-02-26T14:13:02;7.40;;;3.53;;
61640;SDS011;62201;49.966;8.342;2024-02-26T14:15:28;6.28;;;3.63;;
61640;SDS011;62201;49.966;8.342;2024-02-26T14:17:54;5.85;;;3.70;;
61640;SDS011;62201;49.966;8.342;2024-02-26T14:20:21;5.07;;;3.30;;
61640;SDS011;62201;49.966;8.342;2024-02-26T14:22:48;5.82;;;3.80;;
61640;SDS011;62201;49.966;8.342;2024-02-26T14:25:14;5.15;;;3.55;;
61640;SDS011;62201;49.966;8.342;2024-02-26T14:27:39;3.85;;;3.17;;
61640;SDS011;62201;49.966;8.342;2024-02-26T14:30:05;7.57;;;3.75;;
61640;SDS011;62201;49.966;8.342;2024-02-26T14:32:31;4.95;;;3.40;;
61640;SDS011;62201;49.966;8.342;2024-02-26T14:35:00;5.35;;;3.55;;
61640;SDS011;62201;49.966;8.342;2024-02-26T14:37:25;5.25;;;3.40;;
61640;SDS011;62201;49.966;8.342;2024-02-26T14:39:51;8.57;;;3.50;;
61640;SDS011;62201;49.966;8.342;2024-02-26T14:42:17;4.68;;;3.38;;